createdAt,value
2023-01-03T00:00:39.203Z,98623.84
2023-01-03T00:03:27.571Z,98620.66
2023-01-03T00:05:55.477Z,98622.97
2023-01-03T00:08:23.316Z,98621.36
2023-01-03T00:10:51.123Z,98623.23
2023-01-03T00:13:18.983Z,98626.36
2023-01-03T00:15:46.729Z,98628.23
2023-01-03T00:18:14.542Z,98630.96
2023-01-03T00:20:43.132Z,98635.23
2023-01-03T00:23:10.887Z,98633.08
2023-01-03T00:25:38.832Z,98636.55
2023-01-03T00:28:06.847Z,98636.64
2023-01-03T00:30:35.658Z,98637.38
2023-01-03T00:33:04.264Z,98636.04
2023-01-03T00:35:32.409Z,98643.70
2023-01-03T00:38:00.225Z,98644.18
2023-01-03T00:40:28.117Z,98644.14
2023-01-03T00:43:14.712Z,98639.30
2023-01-03T00:45:42.782Z,98643.96
2023-01-03T00:48:10.698Z,98639.08
2023-01-03T00:50:38.511Z,98641.98
2023-01-03T00:53:06.316Z,98639.85
2023-01-03T00:55:34.912Z,98634.44
2023-01-03T00:58:02.697Z,98640.09
2023-01-03T01:00:30.800Z,98632.95
2023-01-03T01:02:58.605Z,98628.72
2023-01-03T01:05:28.464Z,98638.34
2023-01-03T01:07:57.048Z,98636.31
2023-01-03T01:10:25.367Z,98631.18
2023-01-03T01:12:57.237Z,98629.41
2023-01-03T01:15:25.327Z,98630.18
2023-01-03T01:17:53.105Z,98629.98
2023-01-03T01:20:20.959Z,98632.80
2023-01-03T01:22:48.736Z,98628.84
2023-01-03T01:25:16.546Z,98627.90
2023-01-03T01:27:44.359Z,98623.22
2023-01-03T01:30:12.218Z,98622.31
2023-01-03T01:32:40.102Z,98617.80
2023-01-03T01:35:08.207Z,98617.29
2023-01-03T01:37:36.029Z,98618.68
2023-01-03T01:40:04.186Z,98612.10
2023-01-03T01:42:50.604Z,98614.73
2023-01-03T01:45:18.556Z,98607.89
2023-01-03T01:47:55.186Z,98609.02
2023-01-03T01:50:40.818Z,98615.59
2023-01-03T01:53:14.715Z,98612.86
2023-01-03T01:55:44.858Z,98616.83
2023-01-03T01:58:13.219Z,98615.23
2023-01-03T02:00:42.138Z,98620.31
2023-01-03T02:03:10.635Z,98623.20
2023-01-03T02:05:41.656Z,98624.83
2023-01-03T02:08:09.725Z,98625.45
2023-01-03T02:10:55.882Z,98625.65
2023-01-03T02:13:35.895Z,98624.43
2023-01-03T02:16:19.300Z,98623.89
2023-01-03T02:18:55.460Z,98625.25
2023-01-03T02:21:32.208Z,98631.73
2023-01-03T02:24:12.363Z,98630.47
2023-01-03T02:26:55.532Z,98632.07
2023-01-03T02:29:23.406Z,98629.30
2023-01-03T02:32:01.380Z,98627.50
2023-01-03T02:34:32.848Z,98632.40
2023-01-03T02:37:05.894Z,98626.34
2023-01-03T02:39:41.057Z,98627.52
2023-01-03T02:42:41.875Z,98631.40
2023-01-03T02:45:14.469Z,98632.98
2023-01-03T02:47:48.444Z,98635.96
2023-01-03T02:50:16.491Z,98639.25
2023-01-03T02:52:46.337Z,98643.98
2023-01-03T02:55:14.248Z,98643.21
2023-01-03T02:57:51.017Z,98640.17
2023-01-03T03:00:21.575Z,98636.40
2023-01-03T03:02:52.205Z,98633.48
2023-01-03T03:05:23.219Z,98635.96
2023-01-03T03:07:51.303Z,98635.20
2023-01-03T03:10:38.312Z,98633.83
2023-01-03T03:13:15.579Z,98629.52
2023-01-03T03:15:46.144Z,98628.23
2023-01-03T03:18:33.642Z,98628.91
2023-01-03T03:21:21.335Z,98633.60
2023-01-03T03:24:08.896Z,98635.16
2023-01-03T03:26:43.453Z,98638.29
2023-01-03T03:29:15.399Z,98639.00
2023-01-03T03:31:45.245Z,98639.06
2023-01-03T03:34:17.831Z,98640.77
2023-01-03T03:36:45.653Z,98644.58
2023-01-03T03:39:32.989Z,98647.10
2023-01-03T03:42:39.976Z,98649.59
2023-01-03T03:45:24.246Z,98648.78
2023-01-03T03:48:05.957Z,98640.84
2023-01-03T03:50:49.938Z,98638.17
2023-01-03T03:53:20.223Z,98637.92
2023-01-03T03:55:51.941Z,98638.91
2023-01-03T03:58:49.456Z,98642.08
2023-01-03T04:01:20.292Z,98641.65
2023-01-03T04:03:50.155Z,98638.31
2023-01-03T04:06:24.758Z,98640.81
2023-01-03T04:08:52.566Z,98641.40
2023-01-03T04:11:20.444Z,98644.39
2023-01-03T04:13:48.234Z,98646.66
2023-01-03T04:16:16.252Z,98640.75
2023-01-03T04:18:44.189Z,98643.67
2023-01-03T04:21:18.720Z,98645.83
2023-01-03T04:23:49.264Z,98647.98
2023-01-03T04:26:17.476Z,98648.67
2023-01-03T04:28:45.463Z,98646.89
2023-01-03T04:31:13.422Z,98647.33
2023-01-03T04:33:41.375Z,98653.00
2023-01-03T04:36:09.541Z,98650.39
2023-01-03T04:38:37.530Z,98652.82
2023-01-03T04:41:06.103Z,98653.04
2023-01-03T04:43:52.921Z,98654.90
2023-01-03T04:46:21.481Z,98656.02
2023-01-03T04:48:49.545Z,98658.80
2023-01-03T04:51:17.371Z,98657.33
2023-01-03T04:53:45.251Z,98663.62
2023-01-03T04:56:13.134Z,98664.43
2023-01-03T04:58:41.108Z,98667.35
2023-01-03T05:01:09.135Z,98665.56
2023-01-03T05:03:38.221Z,98668.09
2023-01-03T05:06:08.103Z,98673.44
2023-01-03T05:08:36.098Z,98681.11
2023-01-03T05:11:04.027Z,98674.98
2023-01-03T05:13:32.527Z,98674.58
2023-01-03T05:16:04.997Z,98674.80
2023-01-03T05:18:33.069Z,98675.90
2023-01-03T05:21:35.901Z,98681.32
2023-01-03T05:24:22.467Z,98682.41
2023-01-03T05:26:50.558Z,98682.79
2023-01-03T05:29:19.809Z,98684.83
2023-01-03T05:31:48.279Z,98685.92
2023-01-03T05:34:16.154Z,98677.47
2023-01-03T05:36:44.029Z,98680.67
2023-01-03T05:39:11.902Z,98684.27
2023-01-03T05:41:58.910Z,98686.66
2023-01-03T05:44:27.487Z,98695.58
2023-01-03T05:46:55.395Z,98688.72
2023-01-03T05:49:23.204Z,98688.05
2023-01-03T05:51:51.142Z,98687.38
2023-01-03T05:54:19.995Z,98686.05
2023-01-03T05:56:48.603Z,98689.49
2023-01-03T05:59:16.384Z,98686.82
2023-01-03T06:01:44.273Z,98690.81
2023-01-03T06:04:12.262Z,98697.38
2023-01-03T06:06:40.178Z,98699.42
2023-01-03T06:09:08.061Z,98699.17
2023-01-03T06:11:37.302Z,98696.90
2023-01-03T06:14:05.222Z,98692.04
2023-01-03T06:16:52.443Z,98690.41
2023-01-03T06:19:20.420Z,98690.86
2023-01-03T06:21:50.624Z,98690.58
2023-01-03T06:24:18.765Z,98699.55
2023-01-03T06:26:46.673Z,98707.80
2023-01-03T06:29:14.803Z,98710.98
2023-01-03T06:31:42.770Z,98717.46
2023-01-03T06:34:10.697Z,98711.73
2023-01-03T06:36:39.008Z,98706.75
2023-01-03T06:39:08.768Z,98704.86
2023-01-03T06:41:36.659Z,98709.27
2023-01-03T06:44:04.549Z,98713.52
2023-01-03T06:46:50.941Z,98713.39
2023-01-03T06:49:37.654Z,98713.03
2023-01-03T06:52:31.232Z,98721.53
2023-01-03T06:54:59.155Z,98726.96
2023-01-03T06:57:27.566Z,98724.29
2023-01-03T06:59:55.733Z,98728.78
2023-01-03T07:02:23.811Z,98731.86
2023-01-03T07:04:51.856Z,98730.31
2023-01-03T07:07:19.884Z,98736.17
2023-01-03T07:09:47.721Z,98739.02
2023-01-03T07:12:36.838Z,98741.67
2023-01-03T07:15:05.375Z,98745.27
2023-01-03T07:17:33.432Z,98745.30
2023-01-03T07:20:01.646Z,98748.27
2023-01-03T07:22:29.639Z,98750.16
2023-01-03T07:24:57.652Z,98754.33
2023-01-03T07:27:25.853Z,98750.23
2023-01-03T07:29:53.818Z,98746.08
2023-01-03T07:32:21.759Z,98750.69
2023-01-03T07:34:49.537Z,98750.38
2023-01-03T07:37:19.042Z,98748.14
2023-01-03T07:39:46.951Z,98750.20
2023-01-03T07:42:33.539Z,98749.76
2023-01-03T07:45:01.435Z,98749.46
2023-01-03T07:47:29.364Z,98747.23
2023-01-03T07:49:57.181Z,98750.78
2023-01-03T07:52:25.101Z,98744.91
2023-01-03T07:54:52.897Z,98748.30
2023-01-03T07:57:20.789Z,98748.20
2023-01-03T07:59:48.825Z,98740.30
2023-01-03T08:02:16.980Z,98743.70
2023-01-03T08:04:45.006Z,98741.71
2023-01-03T08:07:12.865Z,98739.74
2023-01-03T08:09:59.480Z,98743.86
2023-01-03T08:12:46.114Z,98742.54
2023-01-03T08:15:13.907Z,98739.56
2023-01-03T08:17:43.090Z,98740.78
2023-01-03T08:20:11.060Z,98741.92
2023-01-03T08:22:39.075Z,98740.20
2023-01-03T08:25:07.303Z,98733.62
2023-01-03T08:27:35.160Z,98732.86
2023-01-03T08:30:03.261Z,98741.46
2023-01-03T08:32:32.160Z,98745.13
2023-01-03T08:35:01.089Z,98736.84
2023-01-03T08:37:29.993Z,98732.35
2023-01-03T08:40:01.368Z,98737.96
2023-01-03T08:42:29.899Z,98737.25
2023-01-03T08:45:03.056Z,98735.35
2023-01-03T08:47:31.440Z,98731.80
2023-01-03T08:49:59.896Z,98737.14
2023-01-03T08:52:33.095Z,98736.66
2023-01-03T08:55:03.235Z,98735.70
2023-01-03T08:57:31.260Z,98730.04
2023-01-03T08:59:59.385Z,98735.91
2023-01-03T09:02:27.607Z,98732.89
2023-01-03T09:04:56.552Z,98724.16
2023-01-03T09:07:24.501Z,98716.95
2023-01-03T09:09:52.368Z,98719.11
2023-01-03T09:12:20.303Z,98721.90
2023-01-03T09:14:48.242Z,98723.73
2023-01-03T09:17:16.118Z,98722.90
2023-01-03T09:19:44.402Z,98726.09
2023-01-03T09:22:12.248Z,98718.73
2023-01-03T09:24:40.166Z,98710.33
2023-01-03T09:27:08.008Z,98712.24
2023-01-03T09:29:35.932Z,98710.20
2023-01-03T09:32:04.098Z,98708.74
2023-01-03T09:34:32.076Z,98703.48
2023-01-03T09:36:59.943Z,98698.86
2023-01-03T09:39:27.891Z,98698.07
2023-01-03T09:42:16.804Z,98699.45
2023-01-03T09:44:45.175Z,98698.10
2023-01-03T09:47:18.119Z,98694.27
2023-01-03T09:50:18.456Z,98689.39
2023-01-03T09:52:52.975Z,98697.94
2023-01-03T09:55:39.811Z,98696.00
2023-01-03T09:58:32.066Z,98689.41
2023-01-03T10:01:24.374Z,98683.48
2023-01-03T10:04:12.389Z,98684.48
2023-01-03T10:06:54.417Z,98675.86
2023-01-03T10:09:25.402Z,98674.25
2023-01-03T10:11:53.402Z,98669.57
2023-01-03T10:14:50.426Z,98665.39
2023-01-03T10:17:37.149Z,98660.10
2023-01-03T10:20:11.060Z,98656.64
2023-01-03T10:22:39.404Z,98659.53
2023-01-03T10:25:07.213Z,98658.21
2023-01-03T10:27:36.611Z,98660.24
2023-01-03T10:30:06.233Z,98660.41
2023-01-03T10:32:52.990Z,98655.41
2023-01-03T10:35:20.912Z,98656.42
2023-01-03T10:37:51.474Z,98657.35
2023-01-03T10:40:19.919Z,98652.98
2023-01-03T10:42:52.374Z,98654.08
2023-01-03T10:45:24.585Z,98651.80
2023-01-03T10:48:00.204Z,98652.41
2023-01-03T10:50:28.964Z,98649.35
2023-01-03T10:53:04.077Z,98646.94
2023-01-03T10:55:34.194Z,98643.84
2023-01-03T10:58:04.089Z,98635.25
2023-01-03T11:00:34.430Z,98632.52
2023-01-03T11:03:13.237Z,98628.36
2023-01-03T11:05:42.605Z,98625.65
2023-01-03T11:08:22.414Z,98623.17
2023-01-03T11:10:52.606Z,98622.48
2023-01-03T11:13:40.809Z,98614.56
2023-01-03T11:16:17.391Z,98614.52
2023-01-03T11:18:59.396Z,98605.64
2023-01-03T11:21:37.107Z,98606.23
2023-01-03T11:24:22.943Z,98605.30
2023-01-03T11:26:50.868Z,98607.64
2023-01-03T11:29:59.377Z,98597.71
2023-01-03T11:32:46.051Z,98592.74
2023-01-03T11:35:26.296Z,98587.53
2023-01-03T11:38:06.498Z,98584.14
2023-01-03T11:40:53.297Z,98578.05
2023-01-03T11:43:22.555Z,98577.37
2023-01-03T11:46:06.472Z,98577.27
2023-01-03T11:48:58.312Z,98574.77
2023-01-03T11:51:34.968Z,98581.83
2023-01-03T11:54:23.641Z,98584.98
2023-01-03T11:56:52.992Z,98584.73
2023-01-03T11:59:36.850Z,98579.44
2023-01-03T12:02:24.016Z,98577.80
2023-01-03T12:05:01.279Z,98577.44
2023-01-03T12:10:25.512Z,98583.07
2023-01-03T12:12:56.589Z,98584.42
2023-01-03T12:15:27.697Z,98583.23
2023-01-03T12:18:15.443Z,98579.88
2023-01-03T12:20:52.080Z,98582.06
2023-01-03T12:23:22.976Z,98580.73
2023-01-03T12:25:54.654Z,98579.05
2023-01-03T12:28:36.033Z,98579.55
2023-01-03T12:31:27.911Z,98578.45
2023-01-03T12:34:07.860Z,98574.94
2023-01-03T12:36:41.896Z,98575.06
2023-01-03T12:39:32.917Z,98570.48
2023-01-03T12:42:09.948Z,98567.02
2023-01-03T12:44:40.478Z,98566.83
2023-01-03T12:47:14.430Z,98568.30
2023-01-03T12:49:49.594Z,98569.63
2023-01-03T12:52:19.693Z,98570.41
2023-01-03T12:54:47.868Z,98570.98
2023-01-03T12:57:28.023Z,98575.77
2023-01-03T12:59:59.762Z,98576.45
2023-01-03T13:02:38.092Z,98581.53
2023-01-03T13:05:18.928Z,98585.31
2023-01-03T13:07:50.553Z,98586.39
2023-01-03T13:10:20.882Z,98588.48
2023-01-03T13:12:52.952Z,98586.05
2023-01-03T13:15:33.319Z,98585.86
2023-01-03T13:18:19.697Z,98587.08
2023-01-03T13:20:50.230Z,98588.80
2023-01-03T13:23:33.055Z,98592.94
2023-01-03T13:26:07.685Z,98597.51
2023-01-03T13:28:37.247Z,98602.86
2023-01-03T13:31:14.890Z,98608.76
2023-01-03T13:33:54.834Z,98613.11
2023-01-03T13:36:24.058Z,98614.39
2023-01-03T13:38:56.174Z,98615.70
2023-01-03T13:41:39.093Z,98620.49
2023-01-03T13:44:27.556Z,98624.52
2023-01-03T13:46:56.157Z,98627.60
2023-01-03T13:49:26.587Z,98632.58
2023-01-03T13:51:57.589Z,98636.60
2023-01-03T13:54:34.058Z,98639.05
2023-01-03T13:57:03.998Z,98643.70
2023-01-03T13:59:35.169Z,98644.11
2023-01-03T14:02:06.299Z,98644.90
2023-01-03T14:04:53.357Z,98646.86
2023-01-03T14:07:21.297Z,98644.92
2023-01-03T14:09:49.377Z,98647.08
2023-01-03T14:12:24.650Z,98646.73
2023-01-03T14:14:56.709Z,98648.20
2023-01-03T14:17:31.803Z,98653.34
2023-01-03T14:20:05.018Z,98658.36
2023-01-03T14:22:39.735Z,98659.52
2023-01-03T14:25:08.941Z,98664.73
2023-01-03T14:27:43.700Z,98662.29
2023-01-03T14:30:24.393Z,98663.39
2023-01-03T14:32:53.508Z,98664.13
2023-01-03T14:35:32.127Z,98663.13
2023-01-03T14:38:08.092Z,98664.48
2023-01-03T14:40:46.732Z,98662.64
2023-01-03T14:43:21.174Z,98665.28
2023-01-03T14:45:53.702Z,98663.52
2023-01-03T14:48:23.445Z,98663.82
2023-01-03T14:50:52.231Z,98661.17
2023-01-03T14:53:20.615Z,98662.75
2023-01-03T14:55:54.392Z,98663.90
2023-01-03T14:58:45.280Z,98666.19
2023-01-03T15:01:14.531Z,98663.98
2023-01-03T15:03:47.778Z,98667.73
2023-01-03T15:06:24.143Z,98671.34
2023-01-03T15:08:59.588Z,98670.62
2023-01-03T15:11:28.179Z,98676.97
2023-01-03T15:14:05.326Z,98683.89
2023-01-03T15:16:38.140Z,98685.11
2023-01-03T15:19:06.369Z,98684.80
2023-01-03T15:21:35.521Z,98686.34
2023-01-03T15:24:03.979Z,98696.52
2023-01-03T15:26:43.076Z,98699.20
2023-01-03T15:29:15.947Z,98697.81
2023-01-03T15:31:49.622Z,98690.48
2023-01-03T15:34:27.201Z,98692.21
2023-01-03T15:37:15.372Z,98697.36
2023-01-03T15:39:45.905Z,98700.17
2023-01-03T15:42:44.432Z,98704.11
2023-01-03T15:45:27.370Z,98709.00
2023-01-03T15:47:57.983Z,98706.86
2023-01-03T15:50:33.884Z,98707.58
2023-01-03T15:53:01.835Z,98707.78
2023-01-03T15:55:29.701Z,98710.78
2023-01-03T15:57:59.814Z,98709.48
2023-01-03T16:00:27.933Z,98711.34
2023-01-03T16:02:56.248Z,98711.85
2023-01-03T16:05:25.977Z,98710.23
2023-01-03T16:07:54.344Z,98710.82
2023-01-03T16:10:22.852Z,98711.02
2023-01-03T16:12:50.797Z,98713.73
2023-01-03T16:15:21.200Z,98716.17
2023-01-03T16:17:52.000Z,98721.68
2023-01-03T16:20:20.675Z,98724.36
2023-01-03T16:22:59.591Z,98719.55
2023-01-03T16:25:28.242Z,98718.77
2023-01-03T16:27:56.292Z,98727.20
2023-01-03T16:30:26.130Z,98726.76
2023-01-03T16:32:54.153Z,98729.19
2023-01-03T16:35:22.685Z,98729.08
2023-01-03T16:37:50.535Z,98725.27
2023-01-03T16:40:19.849Z,98727.05
2023-01-03T16:42:48.466Z,98726.56
2023-01-03T16:45:17.607Z,98723.97
2023-01-03T16:47:45.980Z,98720.36
2023-01-03T16:50:16.638Z,98725.66
2023-01-03T16:52:46.424Z,98732.27
2023-01-03T16:55:28.209Z,98727.73
2023-01-03T16:57:57.108Z,98727.46
2023-01-03T17:00:30.020Z,98728.85
2023-01-03T17:03:03.253Z,98732.48
2023-01-03T17:05:38.427Z,98738.23
2023-01-03T17:08:21.785Z,98742.35
2023-01-03T17:10:51.954Z,98735.36
2023-01-03T17:13:24.887Z,98739.23
2023-01-03T17:15:53.631Z,98737.98
2023-01-03T17:18:23.403Z,98738.73
2023-01-03T17:20:57.995Z,98739.83
2023-01-03T17:23:27.847Z,98736.45
2023-01-03T17:25:56.393Z,98733.15
2023-01-03T17:28:24.422Z,98735.86
2023-01-03T17:30:56.672Z,98732.86
2023-01-03T17:33:32.180Z,98729.85
2023-01-03T17:36:01.972Z,98732.64
2023-01-03T17:38:31.196Z,98735.58
2023-01-03T17:40:59.128Z,98735.13
2023-01-03T17:43:28.896Z,98736.58
2023-01-03T17:46:22.944Z,98737.71
2023-01-03T17:49:10.960Z,98733.03
2023-01-03T17:51:38.925Z,98735.72
2023-01-03T17:54:09.634Z,98744.67
2023-01-03T17:56:39.489Z,98747.83
2023-01-03T17:59:07.351Z,98753.49
2023-01-03T18:01:35.715Z,98757.06
2023-01-03T18:04:04.043Z,98756.06
2023-01-03T18:06:32.243Z,98758.52
2023-01-03T18:09:03.012Z,98757.85
2023-01-03T18:11:31.282Z,98757.28
2023-01-03T18:13:59.634Z,98755.13
2023-01-03T18:16:27.555Z,98753.95
2023-01-03T18:18:56.683Z,98752.66
2023-01-03T18:21:27.942Z,98747.34
2023-01-03T18:24:05.265Z,98741.76
2023-01-03T18:26:34.843Z,98736.11
2023-01-03T18:29:03.375Z,98737.02
2023-01-03T18:31:31.844Z,98745.27
2023-01-03T18:34:04.240Z,98743.07
2023-01-03T18:36:38.745Z,98744.38
2023-01-03T18:39:14.555Z,98747.75
2023-01-03T18:41:43.629Z,98752.39
2023-01-03T18:44:19.594Z,98755.08
2023-01-03T18:46:47.913Z,98754.70
2023-01-03T18:49:17.485Z,98761.19
2023-01-03T18:51:53.437Z,98760.30
2023-01-03T18:54:21.365Z,98757.77
2023-01-03T18:56:49.825Z,98752.08
2023-01-03T18:59:17.727Z,98756.08
2023-01-03T19:01:45.833Z,98756.28
2023-01-03T19:04:14.387Z,98757.44
2023-01-03T19:06:47.026Z,98761.38
2023-01-03T19:09:25.969Z,98763.05
2023-01-03T19:11:54.475Z,98766.28
2023-01-03T19:14:22.468Z,98763.77
2023-01-03T19:16:51.907Z,98766.05
2023-01-03T19:19:22.829Z,98770.19
2023-01-03T19:21:58.236Z,98777.62
2023-01-03T19:24:39.470Z,98780.30
2023-01-03T19:27:14.153Z,98784.73
2023-01-03T19:29:42.305Z,98780.28
2023-01-03T19:32:21.760Z,98777.57
2023-01-03T19:34:50.361Z,98774.80
2023-01-03T19:37:18.331Z,98772.45
2023-01-03T19:39:46.287Z,98777.06
2023-01-03T19:42:34.442Z,98779.64
2023-01-03T19:45:11.619Z,98782.13
2023-01-03T19:47:39.489Z,98780.39
2023-01-03T19:50:16.713Z,98779.02
2023-01-03T19:52:45.820Z,98782.34
2023-01-03T19:55:13.978Z,98782.86
2023-01-03T19:57:43.156Z,98784.33
2023-01-03T20:00:17.146Z,98779.05
2023-01-03T20:02:45.524Z,98779.63
2023-01-03T20:05:22.553Z,98781.30
2023-01-03T20:07:51.075Z,98778.09
2023-01-03T20:10:21.505Z,98778.33
2023-01-03T20:12:53.467Z,98776.92
2023-01-03T20:15:26.347Z,98784.30
2023-01-03T20:17:55.240Z,98787.00
2023-01-03T20:20:27.997Z,98788.44
2023-01-03T20:23:05.128Z,98789.56
2023-01-03T20:25:37.372Z,98787.92
2023-01-03T20:28:05.609Z,98789.96
2023-01-03T20:30:34.305Z,98779.13
2023-01-03T20:33:02.362Z,98772.92
2023-01-03T20:38:25.263Z,98768.95
2023-01-03T20:40:53.958Z,98772.41
2023-01-03T20:43:22.438Z,98773.55
2023-01-03T20:45:55.479Z,98774.27
2023-01-03T20:48:26.147Z,98775.16
2023-01-03T20:50:55.073Z,98773.49
2023-01-03T20:53:26.968Z,98775.32
2023-01-03T20:55:55.013Z,98776.79
2023-01-03T20:58:28.019Z,98775.50
2023-01-03T21:01:04.103Z,98769.81
2023-01-03T21:03:33.803Z,98770.83
2023-01-03T21:06:02.965Z,98770.14
2023-01-03T21:08:49.438Z,98770.48
2023-01-03T21:11:17.261Z,98764.67
2023-01-03T21:13:45.202Z,98763.20
2023-01-03T21:16:34.441Z,98758.20
2023-01-03T21:19:04.014Z,98754.57
2023-01-03T21:21:32.638Z,98752.44
2023-01-03T21:24:01.431Z,98752.68
2023-01-03T21:26:29.474Z,98753.39
2023-01-03T21:28:58.097Z,98747.36
2023-01-03T21:31:26.310Z,98745.33
2023-01-03T21:33:54.879Z,98748.91
2023-01-03T21:36:25.533Z,98749.95
2023-01-03T21:38:53.749Z,98748.47
2023-01-03T21:41:23.315Z,98756.59
2023-01-03T21:43:54.034Z,98770.58
2023-01-03T21:46:22.362Z,98766.90
2023-01-03T21:48:50.218Z,98764.53
2023-01-03T21:51:27.444Z,98761.89
2023-01-03T21:54:03.219Z,98765.96
2023-01-03T21:56:31.037Z,98762.77
2023-01-03T21:58:58.971Z,98759.91
2023-01-03T22:01:26.954Z,98761.47
2023-01-03T22:04:16.225Z,98758.98
2023-01-03T22:06:43.981Z,98760.75
2023-01-03T22:09:31.887Z,98755.18
2023-01-03T22:11:59.839Z,98749.50
2023-01-03T22:14:27.655Z,98746.11
2023-01-03T22:16:55.922Z,98746.71
2023-01-03T22:19:24.346Z,98747.91
2023-01-03T22:21:52.233Z,98754.48
2023-01-03T22:24:21.259Z,98756.43
2023-01-03T22:26:49.257Z,98761.38
2023-01-03T22:29:17.282Z,98765.60
2023-01-03T22:31:47.200Z,98765.67
2023-01-03T22:34:15.011Z,98764.27
2023-01-03T22:36:42.788Z,98762.26
2023-01-03T22:39:11.769Z,98761.84
2023-01-03T22:41:39.536Z,98760.80
2023-01-03T22:44:07.404Z,98766.00
2023-01-03T22:46:35.235Z,98770.92
2023-01-03T22:49:03.141Z,98771.91
2023-01-03T22:51:31.373Z,98770.69
2023-01-03T22:53:59.407Z,98770.77
2023-01-03T22:56:27.303Z,98769.52
2023-01-03T22:58:55.375Z,98765.08
2023-01-03T23:01:28.091Z,98752.77
2023-01-03T23:04:00.005Z,98744.88
2023-01-03T23:06:29.446Z,98747.22
2023-01-03T23:08:57.442Z,98746.11
2023-01-03T23:11:45.610Z,98749.42
2023-01-03T23:14:17.430Z,98748.92
2023-01-03T23:16:46.022Z,98749.95
2023-01-03T23:19:15.596Z,98749.95
2023-01-03T23:21:45.546Z,98753.06
2023-01-03T23:24:22.441Z,98753.28
2023-01-03T23:26:50.969Z,98757.48
2023-01-03T23:29:19.409Z,98754.82
2023-01-03T23:31:47.306Z,98755.97
2023-01-03T23:34:15.192Z,98749.48
2023-01-03T23:36:43.604Z,98747.16
2023-01-03T23:39:12.930Z,98740.20
2023-01-03T23:41:41.179Z,98739.98
2023-01-03T23:44:09.461Z,98735.75
2023-01-03T23:46:38.238Z,98736.77
2023-01-03T23:49:06.155Z,98739.25
2023-01-03T23:51:34.249Z,98737.09
2023-01-03T23:54:02.243Z,98734.08
2023-01-03T23:56:30.100Z,98735.02
2023-01-03T23:58:58.133Z,98731.02
